createdAt,value
2019-04-21T00:00:24.196Z,52.70
2019-04-21T00:03:07.305Z,52.10
2019-04-21T00:05:57.186Z,51.90
2019-04-21T00:08:37.924Z,51.30
2019-04-21T00:13:42.640Z,51.40
2019-04-21T00:16:10.650Z,52.30
2019-04-21T00:19:12.970Z,53.70
2019-04-21T00:21:51.142Z,53.70
2019-04-21T00:24:36.374Z,53.50
2019-04-21T00:27:15.638Z,54.20
2019-04-21T00:29:52.107Z,52.50
2019-04-21T00:32:25.394Z,52.70
2019-04-21T00:34:56.590Z,52.80
2019-04-21T00:37:46.986Z,52.50
2019-04-21T00:40:27.477Z,52.90
2019-04-21T00:43:00.894Z,52.70
2019-04-21T00:45:36.444Z,53.20
2019-04-21T00:48:20.269Z,52.60
2019-04-21T00:51:10.942Z,53.40
2019-04-21T00:53:51.189Z,53.10
2019-04-21T00:56:22.878Z,53.20
2019-04-21T00:59:02.390Z,53.80
2019-04-21T01:01:32.938Z,53.40
2019-04-21T01:04:13.916Z,53.30
2019-04-21T01:06:49.600Z,54.00
2019-04-21T01:09:25.947Z,53.60
2019-04-21T01:12:05.126Z,54.30
2019-04-21T01:14:50.080Z,53.90
2019-04-21T01:17:18.683Z,53.90
2019-04-21T01:19:50.676Z,53.90
2019-04-21T01:22:10.437Z,53.80
2019-04-21T01:24:48.835Z,53.80
2019-04-21T01:27:46.788Z,53.70
2019-04-21T01:30:23.705Z,53.80
2019-04-21T01:33:00.034Z,54.20
2019-04-21T01:35:36.203Z,54.10
2019-04-21T01:38:14.236Z,53.70
2019-04-21T01:40:52.732Z,53.70
2019-04-21T01:43:28.707Z,53.30
2019-04-21T01:46:06.694Z,53.70
2019-04-21T01:48:39.076Z,53.70
2019-04-21T01:51:15.638Z,53.70
2019-04-21T01:54:12.526Z,53.60
2019-04-21T01:57:09.987Z,53.80
2019-04-21T01:59:40.225Z,54.00
2019-04-21T02:02:23.020Z,54.00
2019-04-21T02:05:10.553Z,54.60
2019-04-21T02:07:39.260Z,53.60
2019-04-21T02:10:20.355Z,53.60
2019-04-21T02:12:51.086Z,53.50
2019-04-21T02:15:36.004Z,53.80
2019-04-21T02:18:07.591Z,54.00
2019-04-21T02:20:34.488Z,54.40
2019-04-21T02:23:34.544Z,55.70
2019-04-21T02:25:57.589Z,55.10
2019-04-21T02:28:44.034Z,55.40
2019-04-21T02:31:40.477Z,54.90
2019-04-21T02:34:00.367Z,55.10
2019-04-21T02:42:04.577Z,55.20
2019-04-21T02:44:32.621Z,55.20
2019-04-21T02:46:58.411Z,56.30
2019-04-21T02:52:31.730Z,55.50
2019-04-21T02:54:53.982Z,55.60
2019-04-21T02:57:39.614Z,55.80
2019-04-21T03:00:19.147Z,56.00
2019-04-21T03:05:50.961Z,56.50
2019-04-21T03:08:40.469Z,56.30
2019-04-21T03:11:09.050Z,56.50
2019-04-21T03:13:43.895Z,56.90
2019-04-21T03:16:28.428Z,56.80
2019-04-21T03:21:33.963Z,57.10
2019-04-21T03:24:13.787Z,57.30
2019-04-21T03:27:01.589Z,57.30
2019-04-21T03:29:37.027Z,57.60
2019-04-21T03:37:16.621Z,58.10
2019-04-21T03:39:56.824Z,58.00
2019-04-21T03:45:03.683Z,60.00
2019-04-21T03:47:43.528Z,59.40
2019-04-21T03:50:23.909Z,59.30
2019-04-21T03:58:44.922Z,59.60
2019-04-21T04:07:23.064Z,59.40
2019-04-21T04:12:18.832Z,60.00
2019-04-21T04:15:00.724Z,59.90
2019-04-21T04:20:22.169Z,59.90
2019-04-21T04:22:56.153Z,60.10
2019-04-21T04:25:28.005Z,59.70
2019-04-21T04:28:16.265Z,59.80
2019-04-21T04:30:52.756Z,60.10
2019-04-21T04:36:29.024Z,60.30
2019-04-21T04:38:51.999Z,60.70
2019-04-21T04:41:49.227Z,60.40
2019-04-21T04:44:30.314Z,61.10
2019-04-21T04:52:19.569Z,61.40
2019-04-21T05:00:14.501Z,62.10
2019-04-21T05:07:58.042Z,62.50
2019-04-21T05:13:02.311Z,62.20
2019-04-21T05:15:32.214Z,61.90
2019-04-21T05:18:13.386Z,61.90
2019-04-21T05:20:53.383Z,62.10
2019-04-21T05:23:29.229Z,63.00
2019-04-21T05:25:54.390Z,62.30
2019-04-21T05:28:32.959Z,62.00
2019-04-21T05:31:38.254Z,61.60
2019-04-21T05:34:18.597Z,62.00
2019-04-21T05:37:01.028Z,63.90
2019-04-21T05:40:00.517Z,62.00
2019-04-21T05:42:44.440Z,61.40
2019-04-21T05:45:26.824Z,62.00
2019-04-21T05:48:28.278Z,62.70
2019-04-21T05:50:58.873Z,61.80
2019-04-21T05:53:40.905Z,62.00
2019-04-21T05:56:25.671Z,62.00
2019-04-21T05:58:58.813Z,61.30
2019-04-21T06:04:17.465Z,62.00
2019-04-21T06:07:00.589Z,61.40
2019-04-21T06:09:27.413Z,61.00
2019-04-21T06:12:05.906Z,60.90
2019-04-21T06:14:46.446Z,60.00
2019-04-21T06:17:25.257Z,58.90
2019-04-21T06:19:57.277Z,57.80
2019-04-21T06:22:32.858Z,55.70
2019-04-21T06:25:31.601Z,53.50
2019-04-21T06:27:44.340Z,52.60
2019-04-21T06:30:27.716Z,54.30
2019-04-21T06:32:52.701Z,56.20
2019-04-21T06:39:06.350Z,58.00
2019-04-21T06:44:22.728Z,59.50
2019-04-21T06:46:47.127Z,58.70
2019-04-21T06:49:19.125Z,59.00
2019-04-21T06:52:11.428Z,61.30
2019-04-21T06:54:41.055Z,59.40
2019-04-21T06:57:18.218Z,58.40
2019-04-21T06:59:49.675Z,59.20
2019-04-21T07:05:09.003Z,59.00
2019-04-21T07:08:06.295Z,58.50
2019-04-21T07:10:30.733Z,58.30
2019-04-21T07:12:59.251Z,59.60
2019-04-21T07:15:43.545Z,58.60
2019-04-21T07:18:19.499Z,57.80
2019-04-21T07:20:54.947Z,58.80
2019-04-21T07:23:31.166Z,57.60
2019-04-21T07:26:11.148Z,57.70
2019-04-21T07:28:56.277Z,56.90
2019-04-21T07:31:24.994Z,57.10
2019-04-21T07:34:21.647Z,57.90
2019-04-21T07:36:46.354Z,56.40
2019-04-21T07:39:12.038Z,55.90
2019-04-21T07:41:51.086Z,57.10
2019-04-21T07:44:28.526Z,55.80
2019-04-21T07:47:23.529Z,55.40
2019-04-21T07:50:09.071Z,56.10
2019-04-21T07:52:55.281Z,56.50
2019-04-21T07:58:19.116Z,54.60
2019-04-21T08:03:20.454Z,54.80
2019-04-21T08:05:58.441Z,54.30
2019-04-21T08:08:31.450Z,53.90
2019-04-21T08:11:09.085Z,54.10
2019-04-21T08:13:55.089Z,52.80
2019-04-21T08:16:24.424Z,53.00
2019-04-21T08:18:59.483Z,52.20
2019-04-21T08:21:43.371Z,53.00
2019-04-21T08:24:14.973Z,53.00
2019-04-21T08:26:53.116Z,53.50
2019-04-21T08:29:38.033Z,51.10
2019-04-21T08:32:07.954Z,50.80
2019-04-21T08:34:54.871Z,51.60
2019-04-21T08:37:26.126Z,51.50
2019-04-21T08:42:52.377Z,51.10
2019-04-21T08:45:33.613Z,50.50
2019-04-21T08:48:04.151Z,50.50
2019-04-21T08:50:47.587Z,51.10
2019-04-21T08:53:24.737Z,49.10
2019-04-21T08:56:27.795Z,49.10
2019-04-21T09:02:06.259Z,49.70
2019-04-21T09:04:47.998Z,49.20
2019-04-21T09:07:29.181Z,48.00
2019-04-21T09:10:05.195Z,48.10
2019-04-21T09:12:42.790Z,47.60
2019-04-21T09:15:14.459Z,49.10
2019-04-21T09:17:44.652Z,49.40
2019-04-21T09:20:33.406Z,47.80
2019-04-21T09:23:06.883Z,48.10
2019-04-21T09:25:46.748Z,46.40
2019-04-21T09:28:24.139Z,46.90
2019-04-21T09:30:49.961Z,47.30
2019-04-21T09:33:18.501Z,46.90
2019-04-21T09:35:59.068Z,47.20
2019-04-21T09:38:37.119Z,46.10
2019-04-21T09:41:15.519Z,45.40
2019-04-21T09:43:48.978Z,46.50
2019-04-21T09:46:23.122Z,45.50
2019-04-21T09:49:02.661Z,47.00
2019-04-21T09:51:36.882Z,47.00
2019-04-21T09:54:20.717Z,47.20
2019-04-21T09:56:55.991Z,46.10
2019-04-21T09:59:32.127Z,44.80
2019-04-21T10:02:11.871Z,44.30
2019-04-21T10:04:40.642Z,44.30
2019-04-21T10:07:41.946Z,44.20
2019-04-21T10:10:15.435Z,44.80
2019-04-21T10:12:51.891Z,43.90
2019-04-21T10:15:28.310Z,43.10
2019-04-21T10:18:08.692Z,41.50
2019-04-21T10:20:44.856Z,41.60
2019-04-21T10:23:21.240Z,41.80
2019-04-21T10:25:56.845Z,43.10
2019-04-21T10:28:32.910Z,42.10
2019-04-21T10:31:09.039Z,43.70
2019-04-21T10:33:46.273Z,43.20
2019-04-21T10:36:22.717Z,41.70
2019-04-21T10:39:00.397Z,41.40
2019-04-21T10:41:35.309Z,41.70
2019-04-21T10:44:11.449Z,40.10
2019-04-21T10:46:48.970Z,41.10
2019-04-21T10:49:24.534Z,39.70
2019-04-21T10:52:01.346Z,40.40
2019-04-21T10:55:05.623Z,39.70
2019-04-21T10:57:22.265Z,40.50
2019-04-21T10:59:59.429Z,38.80
2019-04-21T11:02:41.332Z,39.40
2019-04-21T11:05:16.816Z,39.60
2019-04-21T11:08:07.655Z,39.10
2019-04-21T11:10:31.968Z,40.00
2019-04-21T11:13:08.409Z,37.30
2019-04-21T11:15:43.719Z,35.80
2019-04-21T11:18:26.025Z,37.50
2019-04-21T11:21:02.846Z,36.90
2019-04-21T11:23:38.453Z,34.00
2019-04-21T11:26:14.004Z,33.20
2019-04-21T11:28:58.998Z,35.30
2019-04-21T11:31:45.225Z,33.60
2019-04-21T11:34:27.445Z,33.00
2019-04-21T11:37:18.062Z,33.90
2019-04-21T11:40:05.486Z,33.70
2019-04-21T11:42:39.696Z,31.10
2019-04-21T11:45:28.338Z,32.10
2019-04-21T11:48:24.110Z,29.10
2019-04-21T11:51:04.854Z,31.50
2019-04-21T11:53:41.103Z,30.70
2019-04-21T11:56:18.917Z,28.60
2019-04-21T11:58:54.244Z,30.00
2019-04-21T12:01:29.810Z,30.30
2019-04-21T12:04:05.538Z,29.90
2019-04-21T12:06:44.447Z,29.80
2019-04-21T12:09:18.929Z,30.40
2019-04-21T12:11:54.410Z,29.20
2019-04-21T12:14:30.273Z,29.30
2019-04-21T12:17:05.851Z,29.50
2019-04-21T12:19:41.366Z,28.90
2019-04-21T12:22:22.118Z,30.30
2019-04-21T12:24:53.816Z,31.20
2019-04-21T12:27:29.927Z,29.40
2019-04-21T12:30:06.120Z,27.70
2019-04-21T12:32:56.076Z,28.90
2019-04-21T12:35:31.476Z,29.10
2019-04-21T12:38:07.026Z,30.00
2019-04-21T12:40:42.442Z,28.90
2019-04-21T12:43:18.793Z,28.60
2019-04-21T12:45:55.866Z,28.40
2019-04-21T12:48:35.724Z,29.00
2019-04-21T12:51:13.891Z,28.80
2019-04-21T12:53:49.882Z,26.90
2019-04-21T12:56:31.646Z,27.80
2019-04-21T12:59:13.104Z,28.20
2019-04-21T13:01:48.652Z,28.40
2019-04-21T13:04:23.930Z,28.20
2019-04-21T13:06:59.482Z,28.70
2019-04-21T13:09:36.117Z,30.40
2019-04-21T13:12:13.009Z,27.80
2019-04-21T13:14:49.543Z,28.60
2019-04-21T13:17:25.576Z,27.90
2019-04-21T13:20:01.227Z,28.60
2019-04-21T13:22:37.521Z,28.20
2019-04-21T13:25:14.041Z,29.20
2019-04-21T13:27:49.938Z,27.30
2019-04-21T13:30:26.899Z,27.30
2019-04-21T13:33:03.033Z,27.50
2019-04-21T13:35:39.146Z,26.60
2019-04-21T13:38:24.370Z,28.10
2019-04-21T13:41:27.213Z,26.90
2019-04-21T13:44:15.673Z,26.30
2019-04-21T13:46:52.463Z,26.40
2019-04-21T13:49:29.466Z,28.10
2019-04-21T13:52:06.660Z,26.80
2019-04-21T13:54:43.261Z,26.60
2019-04-21T13:57:18.841Z,26.80
2019-04-21T13:59:55.168Z,26.70
2019-04-21T14:02:31.445Z,27.00
2019-04-21T14:05:12.306Z,27.50
2019-04-21T14:07:48.162Z,27.10
2019-04-21T14:10:23.961Z,25.80
2019-04-21T14:13:00.456Z,26.50
2019-04-21T14:15:36.103Z,26.80
2019-04-21T14:18:11.392Z,26.70
2019-04-21T14:20:46.951Z,27.50
2019-04-21T14:23:31.736Z,27.30
2019-04-21T14:25:59.707Z,26.70
2019-04-21T14:28:36.649Z,28.10
2019-04-21T14:31:12.485Z,27.30
2019-04-21T14:33:47.980Z,26.70
2019-04-21T14:36:23.340Z,26.60
2019-04-21T14:38:58.774Z,26.90
2019-04-21T14:41:33.964Z,27.40
2019-04-21T14:44:09.330Z,26.60
2019-04-21T14:46:53.301Z,26.60
2019-04-21T14:49:51.045Z,27.10
2019-04-21T14:52:30.754Z,26.90
2019-04-21T14:55:22.797Z,26.70
2019-04-21T14:58:03.313Z,25.90
2019-04-21T15:00:59.825Z,27.40
2019-04-21T15:03:35.345Z,27.50
2019-04-21T15:06:11.608Z,26.80
2019-04-21T15:08:51.082Z,26.90
2019-04-21T15:11:26.558Z,28.20
2019-04-21T15:14:02.067Z,27.80
2019-04-21T15:16:38.601Z,27.30
2019-04-21T15:19:14.790Z,28.80
2019-04-21T15:21:50.358Z,27.30
2019-04-21T15:24:26.635Z,27.60
2019-04-21T15:27:03.085Z,27.20
2019-04-21T15:29:38.557Z,27.30
2019-04-21T15:32:14.890Z,27.60
2019-04-21T15:34:50.312Z,27.90
2019-04-21T15:37:26.045Z,27.70
2019-04-21T15:40:12.248Z,26.70
2019-04-21T15:42:38.924Z,27.50
2019-04-21T15:45:18.696Z,27.40
2019-04-21T15:47:58.130Z,28.10
2019-04-21T15:50:35.581Z,27.70
2019-04-21T15:53:21.655Z,27.20
2019-04-21T15:56:02.564Z,27.60
2019-04-21T15:59:00.970Z,28.60
2019-04-21T16:01:48.464Z,28.30
2019-04-21T16:04:25.118Z,28.20
2019-04-21T16:07:01.554Z,27.90
2019-04-21T16:09:37.571Z,28.00
2019-04-21T16:12:13.946Z,29.30
2019-04-21T16:14:50.361Z,29.70
2019-04-21T16:17:25.669Z,30.00
2019-04-21T16:20:02.038Z,30.10
2019-04-21T16:22:38.893Z,30.10
2019-04-21T16:25:15.006Z,31.10
2019-04-21T16:27:51.036Z,30.40
2019-04-21T16:30:26.425Z,30.00
2019-04-21T16:33:01.993Z,31.10
2019-04-21T16:35:39.851Z,30.70
2019-04-21T16:38:15.449Z,30.40
2019-04-21T16:40:57.372Z,31.00
2019-04-21T16:43:28.885Z,30.50
2019-04-21T16:46:08.763Z,29.80
2019-04-21T16:48:44.187Z,29.60
2019-04-21T16:51:20.179Z,29.90
2019-04-21T16:53:59.894Z,30.20
2019-04-21T16:56:43.919Z,29.80
2019-04-21T16:59:26.851Z,31.60
2019-04-21T17:02:04.736Z,31.40
2019-04-21T17:04:40.356Z,31.70
2019-04-21T17:07:15.761Z,33.20
2019-04-21T17:09:52.622Z,33.70
2019-04-21T17:12:28.750Z,34.60
2019-04-21T17:15:21.482Z,32.70
2019-04-21T17:18:06.430Z,34.00
2019-04-21T17:20:35.731Z,33.30
2019-04-21T17:23:01.680Z,33.60
2019-04-21T17:25:37.096Z,33.60
2019-04-21T17:28:12.517Z,34.20
2019-04-21T17:30:48.519Z,34.50
2019-04-21T17:33:28.272Z,33.40
2019-04-21T17:36:02.926Z,34.90
2019-04-21T17:38:39.416Z,35.60
2019-04-21T17:41:25.944Z,35.90
2019-04-21T17:43:52.564Z,35.90
2019-04-21T17:46:38.547Z,36.80
2019-04-21T17:49:07.080Z,36.30
2019-04-21T17:52:11.440Z,38.10
2019-04-21T17:54:53.891Z,36.90
2019-04-21T17:57:43.868Z,37.20
2019-04-21T18:00:36.326Z,37.40
2019-04-21T18:03:01.855Z,37.00
2019-04-21T18:05:37.484Z,37.60
2019-04-21T18:08:18.535Z,39.50
2019-04-21T18:10:46.384Z,38.90
2019-04-21T18:13:14.335Z,39.60
2019-04-21T18:16:02.891Z,39.20
2019-04-21T18:18:24.479Z,39.30
2019-04-21T18:21:06.946Z,38.80
2019-04-21T18:24:00.704Z,40.60
2019-04-21T18:26:39.441Z,41.40
2019-04-21T18:29:05.610Z,41.90
2019-04-21T18:31:48.080Z,42.40
2019-04-21T18:35:01.522Z,42.80
2019-04-21T18:38:01.241Z,44.20
2019-04-21T18:40:34.779Z,44.80
2019-04-21T18:43:44.781Z,46.50
2019-04-21T18:46:26.608Z,45.90
2019-04-21T18:48:53.424Z,47.40
2019-04-21T18:51:46.096Z,45.30
2019-04-21T18:54:47.133Z,45.10
2019-04-21T18:57:22.557Z,46.20
2019-04-21T18:59:49.444Z,46.80
2019-04-21T19:02:31.813Z,46.40
2019-04-21T19:05:15.444Z,47.20
2019-04-21T19:08:02.987Z,45.30
2019-04-21T19:10:42.247Z,47.80
2019-04-21T19:16:17.043Z,51.10
2019-04-21T19:18:42.872Z,48.40
2019-04-21T19:21:06.110Z,48.90
2019-04-21T19:24:10.733Z,50.30
2019-04-21T19:26:31.513Z,51.00
2019-04-21T19:29:01.234Z,51.80
2019-04-21T19:31:39.912Z,52.70
2019-04-21T19:34:05.838Z,51.40
2019-04-21T19:36:34.574Z,53.40
2019-04-21T19:39:16.388Z,51.50
2019-04-21T19:42:00.773Z,52.60
2019-04-21T19:44:45.202Z,54.50
2019-04-21T19:47:20.838Z,53.10
2019-04-21T19:50:01.473Z,53.90
2019-04-21T19:52:30.952Z,54.60
2019-04-21T19:54:54.473Z,52.80
2019-04-21T19:57:31.193Z,52.10
2019-04-21T20:00:08.207Z,54.50
2019-04-21T20:02:44.863Z,53.30
2019-04-21T20:05:28.209Z,53.60
2019-04-21T20:08:11.388Z,53.40
2019-04-21T20:10:55.034Z,52.70
2019-04-21T20:13:40.898Z,52.60
2019-04-21T20:16:06.808Z,52.90
2019-04-21T20:18:34.842Z,52.90
2019-04-21T20:21:04.006Z,52.80
2019-04-21T20:23:42.560Z,53.00
2019-04-21T20:26:21.038Z,52.40
2019-04-21T20:29:03.125Z,53.60
2019-04-21T20:31:49.007Z,54.70
2019-04-21T20:34:33.906Z,54.80
2019-04-21T20:37:07.679Z,54.30
2019-04-21T20:39:26.965Z,54.90
2019-04-21T20:42:19.845Z,54.60
2019-04-21T20:45:13.033Z,53.80
2019-04-21T20:47:23.191Z,52.00
2019-04-21T20:50:03.061Z,54.90
2019-04-21T20:52:50.912Z,52.20
2019-04-21T20:55:16.587Z,53.80
2019-04-21T20:57:55.224Z,53.30
2019-04-21T21:00:45.907Z,53.00
2019-04-21T21:03:23.204Z,55.90
2019-04-21T21:05:48.914Z,54.70
2019-04-21T21:08:31.434Z,53.80
2019-04-21T21:11:00.876Z,54.70
2019-04-21T21:13:44.468Z,55.00
2019-04-21T21:16:29.393Z,54.40
2019-04-21T21:21:38.341Z,51.90
2019-04-21T21:24:08.659Z,51.40
2019-04-21T21:26:52.354Z,50.30
2019-04-21T21:29:26.415Z,50.40
2019-04-21T21:32:09.732Z,49.40
2019-04-21T21:34:47.853Z,50.50
2019-04-21T21:37:26.825Z,49.10
2019-04-21T21:40:08.245Z,50.00
2019-04-21T21:42:26.438Z,48.60
2019-04-21T21:45:07.515Z,48.50
2019-04-21T21:47:54.938Z,48.20
2019-04-21T21:50:20.830Z,48.70
2019-04-21T21:52:59.942Z,48.00
2019-04-21T21:55:25.629Z,48.30
2019-04-21T21:58:03.502Z,49.10
2019-04-21T22:00:42.957Z,48.90
2019-04-21T22:03:24.494Z,48.50
2019-04-21T22:06:02.132Z,47.60
2019-04-21T22:08:34.383Z,47.90
2019-04-21T22:11:10.929Z,48.40
2019-04-21T22:13:53.283Z,49.00
2019-04-21T22:16:28.849Z,49.10
2019-04-21T22:19:18.436Z,49.40
2019-04-21T22:21:55.076Z,49.30
2019-04-21T22:24:36.259Z,49.90
2019-04-21T22:26:52.649Z,50.70
2019-04-21T22:29:39.178Z,49.50
2019-04-21T22:32:10.282Z,49.90
2019-04-21T22:34:48.737Z,49.60
2019-04-21T22:37:36.809Z,49.30
2019-04-21T22:40:08.379Z,49.70
2019-04-21T22:42:44.376Z,50.40
2019-04-21T22:45:11.374Z,51.00
2019-04-21T22:47:49.314Z,50.20
2019-04-21T22:50:30.685Z,50.60
2019-04-21T22:53:09.628Z,51.00
2019-04-21T22:55:43.174Z,51.10
2019-04-21T22:58:25.728Z,52.50
2019-04-21T23:00:58.583Z,52.60
2019-04-21T23:03:33.961Z,51.30
2019-04-21T23:06:16.299Z,52.00
2019-04-21T23:08:48.109Z,52.40
2019-04-21T23:11:23.646Z,53.20
2019-04-21T23:14:04.408Z,52.50
2019-04-21T23:16:40.259Z,53.80
2019-04-21T23:19:34.930Z,53.70
2019-04-21T23:22:18.329Z,53.10
2019-04-21T23:24:55.569Z,53.80
2019-04-21T23:27:23.993Z,55.60
2019-04-21T23:30:13.600Z,55.20
2019-04-21T23:32:38.574Z,56.10
2019-04-21T23:35:11.426Z,54.70
2019-04-21T23:37:44.620Z,55.40
2019-04-21T23:40:19.880Z,55.50
2019-04-21T23:42:55.272Z,57.30
2019-04-21T23:45:36.186Z,58.10
2019-04-21T23:48:18.482Z,58.40
2019-04-21T23:50:51.325Z,57.80
2019-04-21T23:53:25.698Z,60.30
2019-04-21T23:56:01.314Z,59.10
2019-04-21T23:58:38.437Z,59.20
